Time;durP1;ratioP1;P1;durP2;ratioP2;P2;SDS_P1;SDS_P2;PMS_P1;PMS_P2;Temp;Humidity;BMP_temperature;BMP_pressure;BME280_temperature;BME280_humidity;BME280_pressure;Samples;Min_cycle;Max_cycle;Signal;HPM_P1;HPM_P2
2022/06/22 00:03:30;;;;;;;1.38;0.73;;;;;;;15.48;88.38;101332.81;10519786;28;20055;-75
2022/06/22 00:08:37;;;;;;;1.92;0.80;;;;;;;15.58;87.98;101338.13;10512383;28;20056;-75
2022/06/22 00:13:47;;;;;;;0.20;0.20;;;;;;;15.48;87.11;101348.41;10516747;28;20388;-75
2022/06/22 00:18:50;;;;;;;0.28;0.22;;;;;;;15.27;87.54;101358.50;10536752;28;20508;-75
2022/06/22 00:23:58;;;;;;;0.22;0.22;;;;;;;15.42;86.72;101353.53;10537690;28;20052;-75
2022/06/22 00:29:09;;;;;;;0.47;0.30;;;;;;;14.90;85.75;101359.72;10531224;28;20043;-75
2022/06/22 00:34:10;;;;;;;0.25;0.22;;;;;;;15.03;86.65;101362.47;10528431;28;20044;-76
2022/06/22 00:39:12;;;;;;;0.43;0.30;;;;;;;14.88;86.38;101376.97;10517864;28;20048;-76
2022/06/22 00:44:16;;;;;;;0.90;0.60;;;;;;;14.70;86.57;101366.31;10536474;28;20055;-75
2022/06/22 00:49:21;;;;;;;0.22;0.22;;;;;;;14.56;85.87;101368.63;10540167;28;20150;-75
2022/06/22 00:54:27;;;;;;;0.25;0.25;;;;;;;14.11;85.83;101370.44;10532906;28;20064;-75
2022/06/22 00:59:37;;;;;;;4.35;0.82;;;;;;;13.85;86.95;101367.34;10534147;28;20056;-75
2022/06/22 01:05:01;;;;;;;0.43;0.30;;;;;;;13.54;90.22;101370.16;10531780;28;20547;-75
2022/06/22 01:10:08;;;;;;;0.47;0.40;;;;;;;13.61;92.39;101369.47;10529022;28;20055;-75
2022/06/22 01:15:41;;;;;;;0.73;0.13;;;;;;;13.78;90.87;101374.97;10521731;28;20515;-75
2022/06/22 01:21:05;;;;;;;0.22;0.20;;;;;;;13.73;91.08;101357.63;10517311;28;20469;-75
2022/06/22 01:26:20;;;;;;;0.57;0.32;;;;;;;13.31;92.09;101356.72;10534705;28;20032;-75
2022/06/22 01:31:22;;;;;;;0.10;0.10;;;;;;;12.97;92.89;101337.84;10533621;28;20549;-75
2022/06/22 01:36:32;;;;;;;1.67;0.85;;;;;;;12.79;96.61;101338.28;10530060;28;20130;-75
2022/06/22 01:41:47;;;;;;;0.75;0.63;;;;;;;12.81;100.00;101334.03;10538380;28;20556;-75
2022/06/22 01:47:15;;;;;;;3.42;1.00;;;;;;;12.98;97.72;101340.47;10534674;28;20048;-75
2022/06/22 01:52:39;;;;;;;0.25;0.20;;;;;;;13.12;99.86;101342.50;10535245;28;20032;-75
2022/06/22 01:57:50;;;;;;;0.47;0.45;;;;;;;13.43;96.99;101340.63;10534329;28;20041;-75
2022/06/22 02:03:17;;;;;;;0.38;0.30;;;;;;;13.57;97.30;101356.41;10534461;28;20527;-75
2022/06/22 02:08:33;;;;;;;0.45;0.32;;;;;;;13.27;95.98;101355.78;10540401;28;20050;-76
2022/06/22 02:13:41;;;;;;;0.43;0.28;;;;;;;13.13;94.46;101344.25;10557669;28;20036;-75
2022/06/22 02:18:50;;;;;;;1.08;0.85;;;;;;;12.82;96.09;101349.56;10554382;28;20051;-75
2022/06/22 02:24:03;;;;;;;0.20;0.20;;;;;;;12.76;94.48;101359.75;10554107;28;20048;-75
2022/06/22 02:29:05;;;;;;;0.90;0.90;;;;;;;12.48;96.80;101353.94;10560974;28;20084;-75
2022/06/22 02:34:07;;;;;;;0.93;0.60;;;;;;;12.08;100.00;101339.97;10518239;28;20445;-75
2022/06/22 02:39:11;;;;;;;0.88;0.47;;;;;;;12.52;100.00;101332.47;10543269;28;20048;-75
2022/06/22 02:44:33;;;;;;;0.55;0.38;;;;;;;12.33;100.00;101318.22;10545249;28;20064;-75
2022/06/22 02:49:40;;;;;;;0.98;0.90;;;;;;;12.53;100.00;101303.22;10539125;28;20338;-75
2022/06/22 02:54:50;;;;;;;0.40;0.40;;;;;;;12.79;100.00;101322.75;10548823;28;20093;-75
2022/06/22 02:59:58;;;;;;;0.93;0.52;;;;;;;12.71;100.00;101320.00;10533627;28;20567;-74
2022/06/22 03:05:01;;;;;;;0.30;0.28;;;;;;;12.70;100.00;101302.75;10540088;28;20040;-75
2022/06/22 03:10:05;;;;;;;0.98;0.40;;;;;;;12.60;100.00;101281.00;10521785;28;20062;-74
2022/06/22 03:15:11;;;;;;;1.60;0.98;;;;;;;12.45;100.00;101265.97;10525838;28;20423;-74
2022/06/22 03:20:18;;;;;;;1.05;0.60;;;;;;;12.60;100.00;101255.13;10542177;28;20046;-74
2022/06/22 03:25:56;;;;;;;2.75;0.80;;;;;;;12.61;100.00;101256.88;10525864;28;20047;-75
2022/06/22 03:31:05;;;;;;;0.30;0.28;;;;;;;12.64;100.00;101259.53;10534319;28;20294;-74
2022/06/22 03:36:13;;;;;;;0.57;0.50;;;;;;;12.73;100.00;101256.31;10539875;28;20434;-75
2022/06/22 03:41:19;;;;;;;0.10;0.10;;;;;;;12.79;100.00;101278.81;10553604;28;20047;-75
2022/06/22 03:46:44;;;;;;;0.30;0.20;;;;;;;12.85;100.00;101271.19;10533421;28;20097;-75
2022/06/22 03:51:50;;;;;;;0.30;0.30;;;;;;;12.98;100.00;101308.53;10542202;28;20448;-75
2022/06/22 03:56:57;;;;;;;0.47;0.30;;;;;;;12.87;100.00;101315.19;10520549;28;20454;-75
2022/06/22 04:01:59;;;;;;;1.45;0.60;;;;;;;12.43;99.97;101327.09;10537911;28;20115;-75
2022/06/22 04:07:00;;;;;;;0.20;0.20;;;;;;;12.48;99.99;101333.25;10537806;28;20090;-75
2022/06/22 04:12:09;;;;;;;1.25;0.77;;;;;;;12.60;97.83;101327.50;10544249;28;20043;-75
2022/06/22 04:17:19;;;;;;;0.37;0.37;;;;;;;12.64;97.68;101324.16;10523047;28;20066;-75
2022/06/22 04:22:26;;;;;;;1.38;1.02;;;;;;;12.93;96.68;101310.16;10540429;28;20032;-75
2022/06/22 04:27:37;;;;;;;1.00;0.55;;;;;;;12.62;98.08;101325.81;10525180;28;20476;-75
2022/06/22 04:33:04;;;;;;;0.00;0.00;;;;;;;12.61;98.75;101324.09;10517853;28;20608;-75
2022/06/22 04:38:13;;;;;;;1.48;0.60;;;;;;;12.79;100.00;101327.94;10535610;28;20089;-75
2022/06/22 04:43:14;;;;;;;0.40;0.28;;;;;;;13.15;100.00;101316.66;10538470;28;20040;-75
2022/06/22 04:48:31;;;;;;;0.30;0.30;;;;;;;13.38;100.00;101314.63;10538131;28;20260;-75
2022/06/22 04:53:41;;;;;;;1.10;0.65;;;;;;;13.67;100.00;101316.03;10528705;28;20435;-75
2022/06/22 04:58:47;;;;;;;0.75;0.63;;;;;;;13.68;100.00;101316.09;10536782;28;20052;-75
2022/06/22 05:03:51;;;;;;;0.50;0.40;;;;;;;13.98;99.47;101316.63;10535837;28;20036;-75
2022/06/22 05:09:18;;;;;;;1.48;0.93;;;;;;;14.12;98.55;101321.25;10541327;28;20085;-75
2022/06/22 05:14:25;;;;;;;0.68;0.60;;;;;;;14.40;98.11;101318.25;10536112;28;20032;-75
2022/06/22 05:19:37;;;;;;;0.32;0.32;;;;;;;14.41;95.12;101313.09;10535599;28;20048;-75
2022/06/22 05:24:44;;;;;;;0.70;0.52;;;;;;;14.76;94.64;101314.53;10540035;28;20044;-75
2022/06/22 05:29:51;;;;;;;2.35;0.55;;;;;;;14.83;93.34;101337.13;10534502;28;20040;-75
2022/06/22 05:34:55;;;;;;;1.10;0.60;;;;;;;15.00;91.83;101323.53;10538134;28;20036;-75
2022/06/22 05:39:57;;;;;;;0.68;0.60;;;;;;;15.24;89.92;101328.19;10523206;28;20037;-75
2022/06/22 05:44:59;;;;;;;0.30;0.28;;;;;;;15.42;88.55;101326.66;10510585;28;20136;-74
2022/06/22 05:50:30;;;;;;;1.40;0.57;;;;;;;15.53;86.27;101336.34;10517155;28;20043;-75
2022/06/22 05:55:44;;;;;;;1.48;0.70;;;;;;;15.62;86.02;101348.56;10534497;28;20071;-75
2022/06/22 06:00:50;;;;;;;0.55;0.35;;;;;;;15.88;85.00;101347.16;10517428;28;20097;-75
2022/06/22 06:06:00;;;;;;;1.05;0.82;;;;;;;15.98;83.79;101354.19;10516595;28;20045;-76
2022/06/22 06:11:04;;;;;;;1.30;0.63;;;;;;;16.25;82.65;101356.19;10533123;28;20484;-75
2022/06/22 06:16:15;;;;;;;1.15;0.70;;;;;;;16.39;82.44;101355.44;10525090;28;20139;-75
2022/06/22 06:21:21;;;;;;;0.30;0.30;;;;;;;16.42;79.10;101360.69;10513226;28;20032;-75
2022/06/22 06:32:41;;;;;;;0.77;0.77;;;;;;;16.74;75.54;101345.34;10374541;28;20478;-75
2022/06/22 06:37:52;;;;;;;0.05;0.05;;;;;;;16.87;73.56;101353.22;10498001;28;20069;-75
2022/06/22 06:43:09;;;;;;;0.57;0.50;;;;;;;17.25;72.00;101356.13;10535303;28;20109;-76
2022/06/22 06:48:19;;;;;;;0.85;0.68;;;;;;;17.53;71.24;101350.19;10504426;28;20044;-75
2022/06/22 06:53:23;;;;;;;0.30;0.30;;;;;;;18.08;70.46;101349.53;10530164;28;20032;-75
2022/06/22 06:58:31;;;;;;;0.10;0.10;;;;;;;18.31;63.41;101344.31;10540466;28;20052;-74
2022/06/22 07:03:41;;;;;;;0.60;0.28;;;;;;;19.43;62.39;101336.34;10503520;28;20047;-75
2022/06/22 07:08:54;;;;;;;0.73;0.50;;;;;;;19.82;60.57;101339.66;10536569;28;20046;-76
2022/06/22 07:14:00;;;;;;;0.52;0.38;;;;;;;19.82;59.12;101337.03;10525474;28;20065;-76
2022/06/22 07:19:11;;;;;;;0.52;0.20;;;;;;;20.76;60.23;101335.50;10503822;28;20121;-75
2022/06/22 07:24:21;;;;;;;0.43;0.25;;;;;;;21.14;58.50;101323.75;10518158;28;20051;-76
2022/06/22 07:29:42;;;;;;;0.65;0.45;;;;;;;20.90;54.51;101328.38;10522762;28;20082;-77
2022/06/22 07:34:56;;;;;;;0.52;0.17;;;;;;;21.32;53.55;101324.44;10524984;28;20053;-76
2022/06/22 07:40:26;;;;;;;0.30;0.30;;;;;;;21.88;50.99;101324.59;10523771;28;20052;-75
2022/06/22 07:45:29;;;;;;;;;;;;;;;22.35;52.85;101324.75;10525458;28;20106;-76
2022/06/22 07:50:35;;;;;;;0.28;0.28;;;;;;;22.17;50.98;101316.25;10544380;28;19968;-75
2022/06/22 07:56:03;;;;;;;0.38;0.32;;;;;;;22.48;49.07;101302.66;10538206;28;20040;-76
2022/06/22 08:01:09;;;;;;;0.25;0.22;;;;;;;22.67;51.22;101294.47;10537677;28;20085;-76
2022/06/22 08:06:24;;;;;;;0.32;0.10;;;;;;;22.60;49.92;101300.72;10533613;28;20044;-76
2022/06/22 08:11:34;;;;;;;1.75;0.38;;;;;;;23.08;47.12;101295.41;10536330;28;20122;-76
2022/06/22 08:16:45;;;;;;;0.30;0.20;;;;;;;22.45;47.17;101302.72;10529916;28;20043;-75
2022/06/22 08:21:51;;;;;;;0.38;0.20;;;;;;;23.48;45.83;101301.63;10536595;28;20050;-76
2022/06/22 08:26:55;;;;;;;0.10;0.10;;;;;;;23.64;44.89;101294.28;10515362;28;20048;-76
2022/06/22 08:32:12;;;;;;;0.10;0.10;;;;;;;23.11;46.21;101295.38;10524745;28;20085;-76
2022/06/22 08:37:39;;;;;;;0.20;0.20;;;;;;;23.93;43.37;101290.16;10517724;28;20040;-76
2022/06/22 08:43:23;;;;;;;0.65;0.55;;;;;;;23.65;44.37;101295.13;10532050;28;20047;-75
2022/06/22 08:48:27;;;;;;;1.42;1.33;;;;;;;23.86;43.40;101301.69;10511087;28;20055;-75
2022/06/22 08:53:53;;;;;;;0.22;0.20;;;;;;;24.02;43.45;101308.31;10528623;28;20040;-76
2022/06/22 08:59:18;;;;;;;0.32;0.32;;;;;;;23.58;44.11;101310.19;10516046;28;20121;-75
2022/06/22 09:04:20;;;;;;;0.05;0.05;;;;;;;23.92;42.53;101305.03;10480192;28;1027172;-75
2022/06/22 09:10:01;;;;;;;0.10;0.10;;;;;;;24.46;41.24;101304.66;10536620;28;20043;-76
2022/06/22 09:15:21;;;;;;;0.20;0.15;;;;;;;24.99;39.98;101310.25;10490832;28;20101;-76
2022/06/22 09:20:36;;;;;;;0.10;0.10;;;;;;;24.65;39.45;101316.41;10535739;28;20040;-75
2022/06/22 09:25:59;;;;;;;0.00;0.00;;;;;;;25.27;37.46;101314.75;10536194;28;20173;-76
2022/06/22 09:31:20;;;;;;;0.10;0.10;;;;;;;25.42;40.19;101302.06;10540170;28;20532;-75
2022/06/22 09:36:22;;;;;;;0.00;0.00;;;;;;;25.28;39.50;101302.41;10517528;28;20045;-75
2022/06/22 09:42:00;;;;;;;0.10;0.10;;;;;;;25.92;35.97;101312.81;10519169;28;20044;-75
2022/06/22 09:47:16;;;;;;;0.10;0.10;;;;;;;25.15;36.03;101309.81;10527099;28;20453;-76
2022/06/22 09:53:19;;;;;;;0.20;0.10;;;;;;;25.95;33.28;101312.69;10533481;28;20037;-76
2022/06/22 09:58:55;;;;;;;0.40;0.40;;;;;;;25.39;34.56;101302.13;10488212;28;20474;-75
2022/06/22 10:04:12;;;;;;;0.00;0.00;;;;;;;25.07;33.26;101312.69;10516238;28;20040;-75
2022/06/22 10:09:20;;;;;;;0.10;0.10;;;;;;;25.94;35.59;101300.44;10516781;28;20040;-76
2022/06/22 10:14:40;;;;;;;0.00;0.00;;;;;;;25.77;35.44;101303.56;10507434;28;20037;-76
2022/06/22 10:19:58;;;;;;;0.00;0.00;;;;;;;26.23;35.14;101306.56;10520598;28;20068;-76
2022/06/22 10:25:36;;;;;;;0.00;0.00;;;;;;;25.21;35.64;101304.34;10506839;28;20109;-75
2022/06/22 10:30:49;;;;;;;0.60;0.28;;;;;;;26.20;33.90;101305.78;10533506;28;20048;-76
2022/06/22 10:36:35;;;;;;;0.20;0.20;;;;;;;25.69;34.16;101304.75;10537464;28;20048;-76
2022/06/22 10:47:50;;;;;;;3.40;0.45;;;;;;;26.31;33.77;101297.50;10530372;28;20097;-76
2022/06/22 10:52:59;;;;;;;0.08;0.08;;;;;;;25.72;34.17;101286.19;10499534;28;20484;-76
2022/06/22 10:58:22;;;;;;;0.00;0.00;;;;;;;26.01;32.99;101295.78;10534385;28;20047;-76
2022/06/22 11:03:32;;;;;;;0.28;0.10;;;;;;;26.70;33.43;101278.50;10516445;28;20040;-76
2022/06/22 11:08:51;;;;;;;4.57;0.32;;;;;;;25.85;33.22;101287.53;10535948;28;20043;-76
2022/06/22 11:14:23;;;;;;;0.10;0.10;;;;;;;26.57;33.09;101276.31;10521174;28;20487;-75
2022/06/22 11:19:37;;;;;;;0.05;0.03;;;;;;;26.32;31.45;101284.25;10535100;28;20036;-75
2022/06/22 11:25:07;;;;;;;0.00;0.00;;;;;;;26.68;32.68;101272.44;10543826;28;20415;-76
2022/06/22 11:36:05;;;;;;;0.38;0.22;;;;;;;26.83;32.46;101256.06;10538958;28;20036;-76
2022/06/22 11:41:34;;;;;;;0.00;0.00;;;;;;;26.75;32.06;101256.31;10534733;28;20495;-75
2022/06/22 11:46:47;;;;;;;;;;;;;;;27.02;33.95;101263.28;10535997;28;20113;-75
2022/06/22 11:52:21;;;;;;;0.75;0.20;;;;;;;26.77;31.67;101253.63;10516723;28;20367;-76
2022/06/22 11:57:42;;;;;;;0.10;0.08;;;;;;;26.74;33.18;101253.72;10511216;28;20056;-75
2022/06/22 12:03:09;;;;;;;1.80;0.65;;;;;;;26.96;32.57;101243.22;10530072;28;20048;-75
2022/06/22 12:08:48;;;;;;;0.13;0.10;;;;;;;26.33;30.57;101253.41;10524664;28;20044;-76
2022/06/22 12:19:51;;;;;;;0.00;0.00;;;;;;;26.84;32.02;101233.13;10532483;28;20051;-76
2022/06/22 12:25:20;;;;;;;0.00;0.00;;;;;;;26.46;30.89;101238.88;10524142;28;20048;-75
2022/06/22 12:30:46;;;;;;;0.20;0.20;;;;;;;27.12;34.07;101230.31;10536738;28;20048;-75
2022/06/22 12:35:57;;;;;;;0.30;0.30;;;;;;;27.00;31.45;101222.81;10536987;28;20044;-76
2022/06/22 12:41:09;;;;;;;0.63;0.10;;;;;;;27.05;32.03;101210.31;10514500;28;20093;-75
2022/06/22 12:46:14;;;;;;;0.00;0.00;;;;;;;26.40;30.51;101217.91;10524152;28;20052;-76
2022/06/22 12:51:26;;;;;;;0.00;0.00;;;;;;;27.11;32.53;101204.78;10535594;28;20384;-76
2022/06/22 12:56:41;;;;;;;0.28;0.15;;;;;;;26.85;33.05;101198.69;10535043;28;20140;-75
2022/06/22 13:01:44;;;;;;;0.00;0.00;;;;;;;27.14;32.74;101188.81;10537867;28;20427;-76
2022/06/22 13:06:49;;;;;;;0.00;0.00;;;;;;;26.75;31.85;101197.31;10520722;28;20582;-76
2022/06/22 13:11:54;;;;;;;0.10;0.10;;;;;;;27.11;29.88;101194.19;10515308;28;20101;-76
2022/06/22 13:17:17;;;;;;;1.35;0.05;;;;;;;27.29;32.70;101179.38;10531348;28;20048;-75
2022/06/22 13:22:31;;;;;;;0.25;0.10;;;;;;;26.71;32.29;101185.09;10526684;28;20470;-76
2022/06/22 13:33:42;;;;;;;;;;;;;;;26.83;29.88;101168.84;10534698;28;20466;-76
2022/06/22 13:38:53;;;;;;;0.25;0.20;;;;;;;26.67;30.44;101171.16;10534995;28;19920;-77
2022/06/22 13:44:20;;;;;;;0.15;0.03;;;;;;;26.78;30.88;101157.56;10514263;28;20079;-75
2022/06/22 13:49:35;;;;;;;0.10;0.10;;;;;;;26.95;31.95;101166.63;10508010;28;20100;-78
2022/06/22 13:54:59;;;;;;;0.20;0.20;;;;;;;26.59;28.19;101152.94;10521350;28;20032;-76
2022/06/22 14:00:15;;;;;;;0.30;0.20;;;;;;;26.35;28.87;101151.19;10531041;28;20388;-76
2022/06/22 14:05:27;;;;;;;0.00;0.00;;;;;;;27.06;29.30;101148.56;10518623;28;20040;-76
2022/06/22 14:10:40;;;;;;;0.05;0.05;;;;;;;26.46;28.08;101154.31;10528668;28;20458;-77
2022/06/22 14:16:14;;;;;;;0.00;0.00;;;;;;;27.03;27.80;101148.69;10527309;28;20055;-77
2022/06/22 14:21:40;;;;;;;0.30;0.10;;;;;;;26.78;26.10;101148.78;10543548;28;20060;-77
2022/06/22 14:26:58;;;;;;;0.00;0.00;;;;;;;26.87;28.39;101138.72;10548993;28;20410;-75
2022/06/22 14:32:38;;;;;;;0.10;0.10;;;;;;;26.56;28.33;101144.28;10531426;28;20391;-78
2022/06/22 14:37:53;;;;;;;0.03;0.03;;;;;;;26.56;28.20;101134.56;10532733;28;20129;-76
2022/06/22 14:43:09;;;;;;;0.40;0.30;;;;;;;26.35;27.64;101140.63;10571034;28;20089;-77
2022/06/22 14:48:26;;;;;;;0.08;0.08;;;;;;;26.69;26.30;101131.47;10558757;28;20047;-76
2022/06/22 14:54:01;;;;;;;0.00;0.00;;;;;;;26.53;26.79;101134.69;10542659;28;20040;-76
2022/06/22 14:59:21;;;;;;;0.03;0.00;;;;;;;26.99;29.68;101132.06;10533563;28;20044;-75
2022/06/22 15:04:37;;;;;;;0.00;0.00;;;;;;;26.99;30.95;101123.31;10501571;28;20105;-75
2022/06/22 15:10:07;;;;;;;0.00;0.00;;;;;;;26.80;29.43;101120.50;10538944;28;20044;-75
2022/06/22 15:15:12;;;;;;;0.00;0.00;;;;;;;26.81;29.45;101123.09;10533733;28;20044;-76
2022/06/22 15:20:49;;;;;;;0.10;0.10;;;;;;;26.78;28.06;101123.19;10537940;28;20040;-76
2022/06/22 15:25:58;;;;;;;0.10;0.10;;;;;;;26.79;26.83;101114.34;10535943;28;20060;-75
2022/06/22 15:31:37;;;;;;;0.05;0.05;;;;;;;26.80;28.95;101116.06;10530544;28;20652;-76
2022/06/22 15:36:45;;;;;;;0.10;0.10;;;;;;;26.69;26.75;101110.31;10515672;28;20038;-76
2022/06/22 15:41:54;;;;;;;0.30;0.10;;;;;;;26.98;24.87;101109.19;10534718;28;20056;-76
2022/06/22 15:47:07;;;;;;;0.00;0.00;;;;;;;27.04;28.57;101108.09;10514677;28;20456;-76
2022/06/22 15:52:23;;;;;;;0.28;0.25;;;;;;;26.91;28.84;101108.59;10534277;28;20048;-76
2022/06/22 15:57:51;;;;;;;0.15;0.10;;;;;;;27.00;30.87;101103.84;10536643;28;20089;-75
2022/06/22 16:03:06;;;;;;;0.52;0.28;;;;;;;26.89;31.57;101097.22;10533461;28;20048;-76
2022/06/22 16:08:11;;;;;;;0.10;0.10;;;;;;;26.62;33.12;101101.75;10518220;28;20048;-76
2022/06/22 16:13:29;;;;;;;0.10;0.10;;;;;;;26.49;29.97;101100.50;10517138;28;20039;-76
2022/06/22 16:18:44;;;;;;;0.00;0.00;;;;;;;26.62;29.66;101090.34;10550341;28;20070;-81
2022/06/22 16:23:55;;;;;;;0.00;0.00;;;;;;;26.80;31.16;101094.94;10522984;28;20051;-81
2022/06/22 16:29:08;;;;;;;0.10;0.10;;;;;;;26.47;32.12;101090.00;10528997;28;20056;-81
2022/06/22 16:34:34;;;;;;;0.15;0.15;;;;;;;26.68;31.89;101083.03;10525672;28;20048;-81
2022/06/22 16:39:53;;;;;;;0.00;0.00;;;;;;;26.81;30.51;101090.53;10521239;28;20066;-81
2022/06/22 16:45:16;;;;;;;;;;;;;;;26.79;28.04;101087.91;10550545;28;20126;-81
2022/06/22 16:50:55;;;;;;;1.25;0.20;;;;;;;26.74;28.14;101079.28;10537304;28;20268;-81
2022/06/22 16:55:58;;;;;;;0.00;0.00;;;;;;;26.88;30.38;101074.34;10509113;28;20135;-81
2022/06/22 17:01:08;;;;;;;0.10;0.10;;;;;;;26.85;34.49;101074.47;10547119;28;20301;-81
2022/06/22 17:06:32;;;;;;;0.17;0.17;;;;;;;26.67;31.03;101076.00;10540674;28;20044;-81
2022/06/22 17:11:39;;;;;;;0.10;0.10;;;;;;;26.51;30.92;101069.63;10535516;28;20063;-81
2022/06/22 17:17:06;;;;;;;0.32;0.15;;;;;;;26.34;32.00;101075.53;10539349;28;20047;-80
2022/06/22 17:22:19;;;;;;;0.10;0.00;;;;;;;26.47;32.83;101076.81;10534795;28;20075;-80
2022/06/22 17:27:28;;;;;;;0.00;0.00;;;;;;;26.33;32.88;101076.44;10543753;28;20044;-80
2022/06/22 17:32:36;;;;;;;0.25;0.13;;;;;;;26.23;31.99;101083.84;10541615;28;20079;-81
2022/06/22 17:37:59;;;;;;;0.57;0.10;;;;;;;26.20;33.28;101081.34;10520830;28;20303;-80
2022/06/22 17:43:11;;;;;;;0.00;0.00;;;;;;;26.01;32.49;101083.75;10543682;28;20487;-80
2022/06/22 17:48:16;;;;;;;0.10;0.10;;;;;;;25.96;32.49;101086.56;10535160;28;20074;-81
2022/06/22 17:53:23;;;;;;;0.10;0.10;;;;;;;25.85;34.76;101084.31;10539387;28;20118;-80
2022/06/22 17:58:30;;;;;;;0.20;0.17;;;;;;;25.62;33.96;101085.97;10510635;28;20093;-79
2022/06/22 18:04:01;;;;;;;0.05;0.00;;;;;;;25.56;34.61;101099.38;10527900;28;20552;-80
2022/06/22 18:09:12;;;;;;;0.20;0.20;;;;;;;25.25;33.53;101099.47;10521922;28;20135;-80
2022/06/22 18:14:23;;;;;;;0.00;0.00;;;;;;;25.19;34.89;101090.00;10538919;28;20394;-80
2022/06/22 18:19:36;;;;;;;0.10;0.10;;;;;;;24.94;34.17;101093.41;10537460;28;20072;-80
2022/06/22 18:24:48;;;;;;;0.10;0.10;;;;;;;24.76;33.82;101092.22;10532705;28;20041;-78
2022/06/22 18:29:54;;;;;;;0.08;0.08;;;;;;;24.58;34.37;101093.59;10529827;28;20048;-80
2022/06/22 18:35:13;;;;;;;0.00;0.00;;;;;;;24.56;34.05;101092.78;10513732;28;20036;-80
2022/06/22 18:46:10;;;;;;;0.00;0.00;;;;;;;24.29;34.33;101087.41;10533133;28;20403;-79
2022/06/22 18:51:26;;;;;;;0.10;0.00;;;;;;;24.10;35.30;101096.72;10541394;28;20040;-79
2022/06/22 18:56:41;;;;;;;0.20;0.00;;;;;;;23.98;35.24;101096.16;10523914;28;20031;-79
2022/06/22 19:01:43;;;;;;;0.00;0.00;;;;;;;23.76;35.81;101109.84;10532502;28;20044;-78
2022/06/22 19:06:50;;;;;;;0.00;0.00;;;;;;;23.70;37.87;101110.03;10548846;28;20556;-79
2022/06/22 19:11:55;;;;;;;0.10;0.10;;;;;;;23.44;37.95;101103.63;10551103;28;20051;-80
2022/06/22 19:17:03;;;;;;;0.00;0.00;;;;;;;23.29;37.93;101104.00;10558318;28;20059;-79
2022/06/22 19:22:14;;;;;;;0.00;0.00;;;;;;;23.12;37.85;101113.13;10556574;28;20055;-79
2022/06/22 19:27:35;;;;;;;0.28;0.22;;;;;;;23.02;37.48;101114.25;10542554;28;20043;-79
2022/06/22 19:33:04;;;;;;;0.00;0.00;;;;;;;22.54;38.30;101114.41;10574418;28;20135;-80
2022/06/22 19:38:32;;;;;;;0.00;0.00;;;;;;;22.18;39.47;101123.81;10542309;28;20054;-78
2022/06/22 19:43:59;;;;;;;0.10;0.10;;;;;;;21.92;38.65;101129.53;10534616;28;20089;-78
2022/06/22 19:49:25;;;;;;;0.00;0.00;;;;;;;21.84;38.64;101140.19;10531653;28;20060;-77
2022/06/22 19:54:59;;;;;;;0.00;0.00;;;;;;;21.54;39.31;101141.50;10549754;28;20078;-79
2022/06/22 20:00:02;;;;;;;0.00;0.00;;;;;;;21.17;40.49;101148.19;10528571;28;20090;-80
2022/06/22 20:05:23;;;;;;;1.48;0.28;;;;;;;21.18;40.36;101144.69;10558135;28;20510;-79
2022/06/22 20:10:44;;;;;;;0.00;0.00;;;;;;;21.03;40.69;101155.38;10537451;28;20044;-78
2022/06/22 20:16:02;;;;;;;0.00;0.00;;;;;;;20.77;40.83;101159.19;10540496;28;20067;-79
2022/06/22 20:21:25;;;;;;;0.15;0.00;;;;;;;20.48;41.87;101173.47;10539734;28;20060;-79
2022/06/22 20:27:06;;;;;;;0.00;0.00;;;;;;;20.36;42.04;101166.63;10521810;28;20484;-78
2022/06/22 20:32:34;;;;;;;0.38;0.22;;;;;;;20.27;42.80;101164.97;10508998;28;20097;-78
2022/06/22 20:37:41;;;;;;;0.10;0.00;;;;;;;20.13;43.34;101172.94;10500689;28;20052;-79
2022/06/22 20:43:13;;;;;;;0.00;0.00;;;;;;;19.77;44.51;101174.13;10519317;28;20464;-80
2022/06/22 20:48:37;;;;;;;0.00;0.00;;;;;;;19.54;45.78;101185.63;10562681;28;20373;-80
2022/06/22 20:54:13;;;;;;;0.17;0.10;;;;;;;19.48;45.19;101189.13;10528309;28;20051;-80
2022/06/22 20:59:23;;;;;;;0.03;0.00;;;;;;;19.17;47.02;101193.69;10546395;28;20507;-79
2022/06/22 21:04:27;;;;;;;0.03;0.00;;;;;;;19.00;48.90;101205.06;10526104;28;20051;-80
2022/06/22 21:09:48;;;;;;;0.13;0.13;;;;;;;18.80;51.77;101210.31;10531438;28;20051;-80
2022/06/22 21:15:09;;;;;;;0.30;0.20;;;;;;;19.03;55.46;101223.31;10513265;28;20048;-79
2022/06/22 21:20:26;;;;;;;1.67;1.25;;;;;;;19.09;61.11;101230.25;10540459;28;20043;-79
2022/06/22 21:25:28;;;;;;;1.48;0.32;;;;;;;18.98;64.11;101230.31;10540339;28;20044;-80
2022/06/22 21:30:36;;;;;;;0.40;0.35;;;;;;;18.88;66.99;101239.00;10539824;28;20052;-79
2022/06/22 21:35:59;;;;;;;0.73;0.28;;;;;;;18.90;68.70;101232.03;10521942;28;20479;-79
2022/06/22 21:41:39;;;;;;;0.47;0.47;;;;;;;18.59;69.89;101228.66;10526768;28;20044;-79
2022/06/22 21:46:56;;;;;;;0.55;0.30;;;;;;;18.44;71.51;101232.13;10518822;28;20059;-79
2022/06/22 21:52:24;;;;;;;0.47;0.47;;;;;;;18.32;73.44;101239.13;10544601;28;20048;-78
2022/06/22 21:57:55;;;;;;;0.73;0.30;;;;;;;18.29;74.77;101244.34;10539450;28;20036;-80
2022/06/22 22:03:10;;;;;;;0.40;0.40;;;;;;;18.24;76.09;101251.28;10539894;28;20052;-80
2022/06/22 22:08:17;;;;;;;0.10;0.10;;;;;;;18.24;76.85;101248.69;10538059;28;20522;-79
2022/06/22 22:13:22;;;;;;;0.80;0.57;;;;;;;17.97;78.51;101250.44;10535795;28;20086;-79
2022/06/22 22:18:26;;;;;;;0.20;0.20;;;;;;;18.02;79.51;101256.50;10538126;28;20044;-79
2022/06/22 22:23:35;;;;;;;0.30;0.30;;;;;;;17.80;80.78;101260.78;10539304;28;20475;-79
2022/06/22 22:28:49;;;;;;;;;;;;;;;17.85;80.78;101252.97;10520705;28;20055;-79
2022/06/22 22:33:52;;;;;;;0.13;0.13;;;;;;;17.72;82.19;101254.72;10538685;28;19920;-80
2022/06/22 22:38:54;;;;;;;1.70;1.08;;;;;;;17.61;82.59;101254.66;10503420;28;20070;-80
2022/06/22 22:44:00;;;;;;;1.25;0.65;;;;;;;17.51;83.21;101256.38;10524153;28;20044;-79
2022/06/22 22:49:17;;;;;;;0.38;0.38;;;;;;;17.41;84.05;101255.50;10537897;28;20048;-79
2022/06/22 22:54:25;;;;;;;0.20;0.20;;;;;;;17.38;84.35;101254.63;10521770;28;20132;-78
2022/06/22 22:59:28;;;;;;;0.38;0.38;;;;;;;17.29;84.91;101258.06;10545297;28;20043;-79
2022/06/22 23:04:33;;;;;;;1.17;0.50;;;;;;;17.20;85.70;101263.22;10551532;28;20090;-79
2022/06/22 23:09:35;;;;;;;0.70;0.50;;;;;;;17.12;86.51;101266.66;10545193;28;20059;-80
2022/06/22 23:14:37;;;;;;;0.63;0.45;;;;;;;16.99;87.15;101272.69;10544989;28;20447;-80
2022/06/22 23:19:44;;;;;;;1.02;0.50;;;;;;;17.00;87.09;101271.81;10525154;28;20047;-79
2022/06/22 23:24:48;;;;;;;1.85;0.70;;;;;;;16.84;87.56;101257.81;10526363;28;20101;-79
2022/06/22 23:29:59;;;;;;;0.77;0.75;;;;;;;16.60;89.05;101258.53;10529515;28;20091;-80
2022/06/22 23:35:10;;;;;;;0.88;0.40;;;;;;;16.69;88.28;101261.19;10527344;28;20121;-80
2022/06/22 23:40:33;;;;;;;0.47;0.40;;;;;;;16.56;89.43;101269.78;10555161;28;20040;-80
2022/06/22 23:45:37;;;;;;;1.20;0.68;;;;;;;16.41;90.99;101260.13;10509159;28;20040;-80
2022/06/22 23:50:48;;;;;;;0.90;0.50;;;;;;;16.35;89.91;101250.53;10525223;28;20055;-80
2022/06/22 23:55:51;;;;;;;2.33;1.08;;;;;;;16.25;90.79;101248.75;10543561;28;20051;-79
